Airfield :
LOGIN :

Register | Disclaimer

   EN    FR    IT 

 










Legend :    VFR   Marginal VFR   IFR   Intensive IFR   Very Intensive IFR
Visi :
Ceiling :
>= 8 km
>= 3000ft
5 to 8 km
1000 to 3000 ft
1500m to 5 km
500 to 1000 ft
800 to 1500m
200 to 500 ft
< 800m
< 200 ft
Symbols :   Thunderstorms  Fog  Heavy snow  Heavy precipitations  Wind > 20 kt
SIGMETs :     Misc.  Thunderstorms  Icing  Turbulence  Mountain Waves  Volcanic Ashes






- Airport Elevation : 74 ft
- IATA code : NDZ


ETMN - Cuxhaven Nordholz Sea AB

CURRENT METAR :
  • 190220Z 25011KT 9999 SCT019 BKN037 04/02 Q1006 RERA BLU

EXPIRED METARs :
  • 190159Z 26015KT 9999 -RADZ SCT017 BKN034 04/02 Q1006 RERA BLU
  • 190126Z 26019G39KT 5000 +RADZ BR FEW008 BKN017 04/02 Q1007 WHT
  • 190120Z 23019G39KT 5000 RADZ BR SCT008 BKN020 06/04 Q1006 WHT
  • 190020Z 21016KT 9999 -DZ BKN017 06/04 Q1007 WHT

Expired Forecast.



MET'MAP, your aeronautical weather chart ! - Copyright ORBIFLY December 2007 - Disclaimer

ORBIFLY MET'MAP TEAM :

Programming & Development : Alexandra Zaïnal
Concept & original design : Baudouin d'Aumeries
Assistance for programming : Marc-Olivier Méhu
Technical & hardware support : Manuel Goepfert

Contact : metmap@orbifly.com




SOURCES & CREDITS :

   NOAA